Time;durP1;ratioP1;P1;durP2;ratioP2;P2;SDS_P1;SDS_P2;PMS_P1;PMS_P2;Temp;Humidity;BMP_temperature;BMP_pressure;BME280_temperature;BME280_humidity;BME280_pressure;Samples;Min_cycle;Max_cycle;Signal;HPM_P1;HPM_P2
2021/12/21 00:00:33;;;;;;;5.68;1.80;;;;;;;;;;5094170;28;20024;-72
2021/12/21 00:03:00;;;;;;;20.92;2.05;;;;;;;;;;5094045;28;20055;-71
2021/12/21 00:05:29;;;;;;;3.97;1.70;;;;;;;;;;5092973;28;20024;-74
2021/12/21 00:07:56;;;;;;;4.18;1.60;;;;;;;;;;5094159;28;20027;-73
2021/12/21 00:10:23;;;;;;;5.97;1.70;;;;;;;;;;5092863;28;20016;-73
2021/12/21 00:15:34;;;;;;;4.97;1.92;;;;;;;;;;5093919;28;20373;-73
2021/12/21 00:18:07;;;;;;;3.90;1.90;;;;;;;;;;5094188;28;20081;-72
2021/12/21 00:23:33;;;;;;;4.40;1.85;;;;;;;;;;5093835;28;19911;-73
2021/12/21 00:26:00;;;;;;;4.72;1.80;;;;;;;;;;5092296;28;20028;-72
2021/12/21 00:28:32;;;;;;;5.78;1.70;;;;;;;;;;5093641;28;20493;-72
2021/12/21 00:30:58;;;;;;;4.80;1.65;;;;;;;;;;5093648;28;20476;-72
2021/12/21 00:33:24;;;;;;;3.75;1.63;;;;;;;;;;5092181;28;20024;-72
2021/12/21 00:35:50;;;;;;;4.57;1.70;;;;;;;;;;5093475;28;20099;-72
2021/12/21 00:38:16;;;;;;;3.70;1.60;;;;;;;;;;5093472;28;20090;-71
2021/12/21 00:40:42;;;;;;;3.65;1.55;;;;;;;;;;5093595;28;20031;-71
2021/12/21 00:43:08;;;;;;;4.32;1.75;;;;;;;;;;5093332;28;20431;-72
2021/12/21 00:45:34;;;;;;;3.05;1.48;;;;;;;;;;5093186;28;20027;-72
2021/12/21 00:48:01;;;;;;;3.35;1.35;;;;;;;;;;5093380;28;20086;-71
2021/12/21 00:50:29;;;;;;;4.03;1.70;;;;;;;;;;5093301;28;20020;-72
2021/12/21 00:52:55;;;;;;;4.07;1.60;;;;;;;;;;5091733;28;20401;-72
2021/12/21 00:55:22;;;;;;;4.85;1.52;;;;;;;;;;5093326;28;20020;-73
2021/12/21 00:57:48;;;;;;;2.72;1.27;;;;;;;;;;5093067;28;20086;-72
2021/12/21 01:00:15;;;;;;;4.05;1.73;;;;;;;;;;5090714;28;20020;-73
2021/12/21 01:02:42;;;;;;;3.60;1.40;;;;;;;;;;5093100;28;20016;-72
2021/12/21 01:05:16;;;;;;;3.28;1.42;;;;;;;;;;5092922;28;20084;-73
2021/12/21 01:07:46;;;;;;;4.50;1.65;;;;;;;;;;5092861;28;20074;-73
2021/12/21 01:17:50;;;;;;;3.03;1.20;;;;;;;;;;5092518;28;20043;-73
2021/12/21 01:20:35;;;;;;;4.70;1.58;;;;;;;;;;5091366;28;20024;-72
2021/12/21 01:28:25;;;;;;;3.00;1.38;;;;;;;;;;5088908;28;20075;-73
2021/12/21 01:31:41;;;;;;;3.25;1.23;;;;;;;;;;5091218;28;20024;-73
2021/12/21 01:36:30;;;;;;;3.50;1.20;;;;;;;;;;5092369;28;20039;-72
2021/12/21 01:39:12;;;;;;;2.63;1.23;;;;;;;;;;5092497;28;20028;-71
2021/12/21 01:41:52;;;;;;;2.78;1.10;;;;;;;;;;5092253;28;20085;-72
2021/12/21 01:49:51;;;;;;;4.07;1.50;;;;;;;;;;5092142;28;20038;-71
2021/12/21 01:52:18;;;;;;;3.30;1.40;;;;;;;;;;5092080;28;20020;-73
2021/12/21 01:54:45;;;;;;;6.85;1.40;;;;;;;;;;5091921;28;20035;-72
2021/12/21 01:57:11;;;;;;;5.22;1.35;;;;;;;;;;5091868;28;20057;-70
2021/12/21 01:59:38;;;;;;;3.63;1.70;;;;;;;;;;5092003;28;20658;-72
2021/12/21 02:02:05;;;;;;;5.60;1.65;;;;;;;;;;5091185;28;20032;-72
2021/12/21 02:04:32;;;;;;;4.30;1.30;;;;;;;;;;5087012;28;20016;-72
2021/12/21 02:06:58;;;;;;;4.82;1.27;;;;;;;;;;5071480;28;20024;-73
2021/12/21 02:09:31;;;;;;;3.58;1.58;;;;;;;;;;5071401;28;20025;-73
2021/12/21 02:11:57;;;;;;;3.72;1.48;;;;;;;;;;5069817;28;20052;-73
2021/12/21 02:14:23;;;;;;;3.55;1.50;;;;;;;;;;5070170;28;20028;-72
2021/12/21 02:17:59;;;;;;;3.75;1.60;;;;;;;;;;5070217;28;20059;-72
2021/12/21 02:19:41;;;;;;;3.25;1.40;;;;;;;;;;5084397;28;20031;-72
2021/12/21 02:22:12;;;;;;;3.15;1.20;;;;;;;;;;5090071;28;20008;-73
2021/12/21 02:24:48;;;;;;;3.85;1.33;;;;;;;;;;5091454;28;20588;-72
2021/12/21 02:27:25;;;;;;;3.25;1.38;;;;;;;;;;5091634;28;20073;-72
2021/12/21 02:29:51;;;;;;;3.65;1.38;;;;;;;;;;5091362;28;20480;-73
2021/12/21 02:32:17;;;;;;;3.30;1.10;;;;;;;;;;5091259;28;20024;-73
2021/12/21 02:34:44;;;;;;;3.08;1.27;;;;;;;;;;5090229;28;20028;-73
2021/12/21 02:37:11;;;;;;;2.95;1.30;;;;;;;;;;5090085;28;20032;-73
2021/12/21 02:39:37;;;;;;;4.82;1.30;;;;;;;;;;5091261;28;20021;-72
2021/12/21 02:42:05;;;;;;;4.18;1.55;;;;;;;;;;5091158;28;20031;-72
2021/12/21 02:44:31;;;;;;;4.50;1.30;;;;;;;;;;5091389;28;20078;-72
2021/12/21 02:46:57;;;;;;;3.47;1.27;;;;;;;;;;5091256;28;20024;-74
2021/12/21 02:49:23;;;;;;;3.50;1.40;;;;;;;;;;5091471;28;20030;-74
2021/12/21 02:51:49;;;;;;;3.78;1.27;;;;;;;;;;5091612;28;20107;-72
2021/12/21 02:54:17;;;;;;;4.05;1.52;;;;;;;;;;5090167;28;20016;-74
2021/12/21 02:56:43;;;;;;;4.10;1.50;;;;;;;;;;5091099;28;20032;-73
2021/12/21 02:59:10;;;;;;;3.45;1.50;;;;;;;;;;5091190;28;20046;-74
2021/12/21 03:01:36;;;;;;;3.55;1.60;;;;;;;;;;5091138;28;20117;-73
2021/12/21 03:04:03;;;;;;;4.60;1.38;;;;;;;;;;5089685;28;20028;-74
2021/12/21 03:11:56;;;;;;;3.03;1.30;;;;;;;;;;5090621;28;20462;-74
2021/12/21 03:14:23;;;;;;;3.92;1.52;;;;;;;;;;5089622;28;20415;-74
2021/12/21 03:16:49;;;;;;;3.78;1.23;;;;;;;;;;5088085;28;20040;-73
2021/12/21 03:19:16;;;;;;;3.45;1.25;;;;;;;;;;5088401;28;20020;-74
2021/12/21 03:21:42;;;;;;;3.40;1.50;;;;;;;;;;5090916;28;20020;-73
2021/12/21 03:24:08;;;;;;;3.42;1.42;;;;;;;;;;5093444;28;20099;-72
2021/12/21 03:26:34;;;;;;;4.50;1.35;;;;;;;;;;5093914;28;20089;-74
2021/12/21 03:29:01;;;;;;;4.22;1.42;;;;;;;;;;5094764;28;20024;-73
2021/12/21 03:31:27;;;;;;;2.63;1.20;;;;;;;;;;5094772;28;20040;-72
2021/12/21 03:33:53;;;;;;;3.45;1.27;;;;;;;;;;5094777;28;20052;-74
2021/12/21 03:36:20;;;;;;;4.00;1.15;;;;;;;;;;5094749;28;20032;-73
2021/12/21 03:38:54;;;;;;;2.78;1.02;;;;;;;;;;5094163;28;20020;-75
2021/12/21 03:41:20;;;;;;;2.90;1.40;;;;;;;;;;5094639;28;20019;-74
2021/12/21 03:43:47;;;;;;;2.92;1.17;;;;;;;;;;5094382;28;20039;-74
2021/12/21 03:46:15;;;;;;;4.60;1.38;;;;;;;;;;5093336;28;20131;-74
2021/12/21 03:48:43;;;;;;;3.40;1.27;;;;;;;;;;5094509;28;20357;-74
2021/12/21 03:51:10;;;;;;;4.15;1.45;;;;;;;;;;5093084;28;20016;-73
2021/12/21 03:53:36;;;;;;;2.90;1.20;;;;;;;;;;5092810;28;20016;-72
2021/12/21 03:56:17;;;;;;;2.88;1.30;;;;;;;;;;5093075;28;20019;-73
2021/12/21 03:58:44;;;;;;;3.35;1.23;;;;;;;;;;5093051;28;20058;-74
2021/12/21 04:01:10;;;;;;;4.80;1.42;;;;;;;;;;5092848;28;20020;-73
2021/12/21 04:03:36;;;;;;;2.83;1.27;;;;;;;;;;5094142;28;20076;-73
2021/12/21 04:06:03;;;;;;;3.20;1.20;;;;;;;;;;5094178;28;20099;-74
2021/12/21 04:08:29;;;;;;;2.72;1.10;;;;;;;;;;5094273;28;20020;-73
2021/12/21 04:10:55;;;;;;;4.03;1.70;;;;;;;;;;5092720;28;20109;-73
2021/12/21 04:13:21;;;;;;;2.53;1.10;;;;;;;;;;5092899;28;20024;-73
2021/12/21 04:15:51;;;;;;;3.83;1.48;;;;;;;;;;5094192;28;20097;-73
2021/12/21 04:18:20;;;;;;;4.15;1.10;;;;;;;;;;5086202;28;20028;-74
2021/12/21 04:20:46;;;;;;;3.53;1.20;;;;;;;;;;5074190;28;20572;-72
2021/12/21 04:23:12;;;;;;;3.63;1.50;;;;;;;;;;5073059;28;20039;-74
2021/12/21 04:25:38;;;;;;;4.45;1.48;;;;;;;;;;5073565;28;20534;-73
2021/12/21 04:28:04;;;;;;;3.55;1.38;;;;;;;;;;5072359;28;20050;-73
2021/12/21 04:30:30;;;;;;;4.28;1.42;;;;;;;;;;5073621;28;20055;-73
2021/12/21 04:32:56;;;;;;;3.17;1.30;;;;;;;;;;5073608;28;20028;-73
2021/12/21 04:35:23;;;;;;;3.83;1.10;;;;;;;;;;5072030;28;20116;-73
2021/12/21 04:38:11;;;;;;;2.80;1.25;;;;;;;;;;5071827;28;20063;-73
2021/12/21 04:40:42;;;;;;;4.05;1.20;;;;;;;;;;5073291;28;20012;-74
2021/12/21 04:43:08;;;;;;;3.63;1.45;;;;;;;;;;5073240;28;20111;-72
2021/12/21 04:45:36;;;;;;;4.72;1.15;;;;;;;;;;5072969;28;20017;-73
2021/12/21 04:48:02;;;;;;;3.45;1.30;;;;;;;;;;5071781;28;20021;-73
2021/12/21 04:50:28;;;;;;;4.15;1.35;;;;;;;;;;5072896;28;20523;-74
2021/12/21 04:52:54;;;;;;;2.83;1.15;;;;;;;;;;5071605;28;20028;-73
2021/12/21 04:55:20;;;;;;;3.60;1.45;;;;;;;;;;5073104;28;20020;-73
2021/12/21 04:57:46;;;;;;;2.58;1.08;;;;;;;;;;5072832;28;20028;-73
2021/12/21 05:00:13;;;;;;;3.25;1.17;;;;;;;;;;5073006;28;20016;-72
2021/12/21 05:02:39;;;;;;;3.92;1.20;;;;;;;;;;5072819;28;20028;-74
2021/12/21 05:05:06;;;;;;;2.97;1.13;;;;;;;;;;5072905;28;20017;-74
2021/12/21 05:07:35;;;;;;;3.67;1.45;;;;;;;;;;5072645;28;20034;-74
2021/12/21 05:10:02;;;;;;;3.08;1.35;;;;;;;;;;5072624;28;20175;-73
2021/12/21 05:12:28;;;;;;;2.72;1.15;;;;;;;;;;5072619;28;20047;-73
2021/12/21 05:14:55;;;;;;;3.95;1.30;;;;;;;;;;5072292;28;20040;-73
2021/12/21 05:17:21;;;;;;;4.18;1.42;;;;;;;;;;5072452;28;20032;-73
2021/12/21 05:19:47;;;;;;;3.15;1.42;;;;;;;;;;5072600;28;20127;-73
2021/12/21 05:22:15;;;;;;;4.07;1.52;;;;;;;;;;5072552;28;20067;-74
2021/12/21 05:24:42;;;;;;;3.53;1.42;;;;;;;;;;5072367;28;20085;-73
2021/12/21 05:27:09;;;;;;;5.05;1.23;;;;;;;;;;5070861;28;20048;-73
2021/12/21 05:29:35;;;;;;;3.83;1.35;;;;;;;;;;5071002;28;20119;-73
2021/12/21 05:32:02;;;;;;;3.22;1.33;;;;;;;;;;5081849;28;20060;-73
2021/12/21 05:34:29;;;;;;;4.60;1.65;;;;;;;;;;5092720;28;20071;-73
2021/12/21 05:36:55;;;;;;;5.00;1.50;;;;;;;;;;5092753;28;20326;-69
2021/12/21 05:39:25;;;;;;;3.70;1.25;;;;;;;;;;5093227;28;20023;-69
2021/12/21 05:41:54;;;;;;;5.93;1.70;;;;;;;;;;5093280;28;20565;-70
2021/12/21 05:44:21;;;;;;;6.13;1.70;;;;;;;;;;5093287;28;20020;-67
2021/12/21 05:46:47;;;;;;;3.85;1.38;;;;;;;;;;5092425;28;20020;-67
2021/12/21 05:49:14;;;;;;;5.28;1.42;;;;;;;;;;5092878;28;20638;-71
2021/12/21 05:51:40;;;;;;;3.55;1.38;;;;;;;;;;5092865;28;20028;-65
2021/12/21 05:54:06;;;;;;;3.65;1.10;;;;;;;;;;5092511;28;20107;-69
2021/12/21 05:56:32;;;;;;;5.07;1.48;;;;;;;;;;5092434;28;20499;-68
2021/12/21 05:59:00;;;;;;;6.03;1.50;;;;;;;;;;5092170;28;20093;-68
2021/12/21 06:01:26;;;;;;;3.58;1.30;;;;;;;;;;5089701;28;20012;-69
2021/12/21 06:03:52;;;;;;;4.13;1.65;;;;;;;;;;5072387;28;20078;-68
2021/12/21 06:06:18;;;;;;;3.58;1.23;;;;;;;;;;5070192;28;20155;-68
2021/12/21 06:08:47;;;;;;;3.80;1.45;;;;;;;;;;5071737;28;20036;-67
2021/12/21 06:11:14;;;;;;;3.60;1.33;;;;;;;;;;5071906;28;20027;-67
2021/12/21 06:27:22;;;;;;;3.85;1.42;;;;;;;;;;5091703;28;20047;-69
2021/12/21 06:29:48;;;;;;;6.13;1.60;;;;;;;;;;5090142;28;20047;-70
2021/12/21 06:32:15;;;;;;;4.65;1.77;;;;;;;;;;5091395;28;20024;-69
2021/12/21 06:34:41;;;;;;;4.72;1.30;;;;;;;;;;5089941;28;20465;-69
2021/12/21 06:37:07;;;;;;;4.00;1.38;;;;;;;;;;5086259;28;20161;-69
2021/12/21 06:39:33;;;;;;;4.63;1.70;;;;;;;;;;5090046;28;20028;-67
2021/12/21 06:42:01;;;;;;;4.22;1.75;;;;;;;;;;5091319;28;20496;-68
2021/12/21 06:44:27;;;;;;;3.50;1.30;;;;;;;;;;5090149;28;20016;-69
2021/12/21 06:52:04;;;;;;;4.07;1.70;;;;;;;;;;5091262;28;20372;-68
2021/12/21 06:54:31;;;;;;;3.58;1.42;;;;;;;;;;5084473;28;20115;-69
2021/12/21 06:56:57;;;;;;;3.60;1.80;;;;;;;;;;5090762;28;20437;-68
2021/12/21 06:59:23;;;;;;;7.47;1.40;;;;;;;;;;5093930;28;20031;-68
2021/12/21 07:01:49;;;;;;;3.88;1.67;;;;;;;;;;5094949;28;20038;-70
2021/12/21 07:04:17;;;;;;;4.68;1.40;;;;;;;;;;5094539;28;20659;-69
2021/12/21 07:06:45;;;;;;;5.18;1.65;;;;;;;;;;5093223;28;20502;-70
2021/12/21 07:19:36;;;;;;;5.20;1.67;;;;;;;;;;5094271;28;20043;-69
2021/12/21 07:22:02;;;;;;;4.28;1.63;;;;;;;;;;5093894;28;20032;-69
2021/12/21 07:24:28;;;;;;;4.85;1.35;;;;;;;;;;5093957;28;20024;-69
2021/12/21 07:26:54;;;;;;;3.67;1.40;;;;;;;;;;5094280;28;20052;-70
2021/12/21 07:29:20;;;;;;;6.53;1.60;;;;;;;;;;5093409;28;20020;-68
2021/12/21 07:31:47;;;;;;;5.03;1.60;;;;;;;;;;5092734;28;20028;-67
2021/12/21 07:34:13;;;;;;;3.95;1.65;;;;;;;;;;5092841;28;20101;-68
2021/12/21 07:36:42;;;;;;;5.20;1.60;;;;;;;;;;5092615;28;20032;-68
2021/12/21 07:39:09;;;;;;;4.65;1.73;;;;;;;;;;5092484;28;20028;-68
2021/12/21 07:41:35;;;;;;;3.70;1.48;;;;;;;;;;5094023;28;20039;-68
2021/12/21 07:44:01;;;;;;;4.38;1.60;;;;;;;;;;5093806;28;20031;-69
2021/12/21 07:46:27;;;;;;;3.45;1.35;;;;;;;;;;5092096;28;20020;-67
2021/12/21 07:48:54;;;;;;;3.42;1.17;;;;;;;;;;5093735;28;20028;-71
2021/12/21 07:51:20;;;;;;;5.05;1.70;;;;;;;;;;5084484;28;20036;-69
2021/12/21 07:53:47;;;;;;;4.97;1.60;;;;;;;;;;5073357;28;20230;-67
2021/12/21 07:56:16;;;;;;;4.45;1.80;;;;;;;;;;5074401;28;20024;-69
2021/12/21 07:58:43;;;;;;;3.50;1.30;;;;;;;;;;5074458;28;20074;-69
2021/12/21 08:01:09;;;;;;;3.20;1.40;;;;;;;;;;5074480;28;20059;-67
2021/12/21 08:03:55;;;;;;;6.80;1.55;;;;;;;;;;5073239;28;20068;-66
2021/12/21 08:06:22;;;;;;;5.13;1.48;;;;;;;;;;5074194;28;20039;-68
2021/12/21 08:08:49;;;;;;;4.60;1.60;;;;;;;;;;5073157;28;20108;-70
2021/12/21 08:12:10;;;;;;;3.78;1.58;;;;;;;;;;5073543;28;20028;-69
2021/12/21 08:14:13;;;;;;;3.80;1.40;;;;;;;;;;5073260;28;20433;-69
2021/12/21 08:16:39;;;;;;;3.53;1.42;;;;;;;;;;5072110;28;20048;-73
2021/12/21 08:19:05;;;;;;;5.95;1.50;;;;;;;;;;5073610;28;20495;-71
2021/12/21 08:21:32;;;;;;;5.10;1.45;;;;;;;;;;5073531;28;20021;-69
2021/12/21 08:23:58;;;;;;;5.20;1.25;;;;;;;;;;5073970;28;20568;-72
2021/12/21 08:26:24;;;;;;;3.72;1.20;;;;;;;;;;5074051;28;20027;-71
2021/12/21 08:28:50;;;;;;;5.18;1.40;;;;;;;;;;5072547;28;20027;-71
2021/12/21 08:31:17;;;;;;;3.28;1.33;;;;;;;;;;5073666;28;20032;-70
2021/12/21 08:33:43;;;;;;;4.03;1.42;;;;;;;;;;5072578;28;20081;-72
2021/12/21 08:36:10;;;;;;;3.42;1.50;;;;;;;;;;5073826;28;20020;-72
2021/12/21 08:38:38;;;;;;;3.10;1.17;;;;;;;;;;5072467;28;20485;-72
2021/12/21 08:41:04;;;;;;;5.40;1.40;;;;;;;;;;5073829;28;20013;-72
2021/12/21 08:43:32;;;;;;;5.20;1.70;;;;;;;;;;5074033;28;20020;-69
2021/12/21 08:46:00;;;;;;;3.08;1.38;;;;;;;;;;5073543;28;20016;-72
2021/12/21 08:48:26;;;;;;;6.57;1.88;;;;;;;;;;5073650;28;20017;-69
2021/12/21 08:50:54;;;;;;;3.88;1.42;;;;;;;;;;5072425;28;20025;-71
2021/12/21 08:53:21;;;;;;;4.03;1.60;;;;;;;;;;5073658;28;20025;-71
2021/12/21 08:55:48;;;;;;;7.30;1.77;;;;;;;;;;5073535;28;20032;-70
2021/12/21 08:58:14;;;;;;;5.03;1.42;;;;;;;;;;5081553;28;20253;-71
2021/12/21 09:00:41;;;;;;;3.92;1.50;;;;;;;;;;5092387;28;20024;-72
2021/12/21 09:03:08;;;;;;;3.80;1.30;;;;;;;;;;5079633;28;20434;-68
2021/12/21 09:05:34;;;;;;;7.05;1.90;;;;;;;;;;5092853;28;20020;-69
2021/12/21 09:08:01;;;;;;;5.28;1.48;;;;;;;;;;5093047;28;20069;-71
2021/12/21 09:10:28;;;;;;;4.10;1.60;;;;;;;;;;5092888;28;20062;-69
2021/12/21 09:12:54;;;;;;;5.05;1.70;;;;;;;;;;5092781;28;20027;-71
2021/12/21 09:15:21;;;;;;;3.58;1.50;;;;;;;;;;5092595;28;20044;-72
2021/12/21 09:17:48;;;;;;;10.55;1.73;;;;;;;;;;5091470;28;20028;-70
2021/12/21 09:20:15;;;;;;;5.38;1.50;;;;;;;;;;5092501;28;20032;-70
2021/12/21 09:22:42;;;;;;;4.88;1.50;;;;;;;;;;5091971;28;20016;-72
2021/12/21 09:25:08;;;;;;;3.53;1.38;;;;;;;;;;5092991;28;20024;-70
2021/12/21 09:27:34;;;;;;;5.22;1.67;;;;;;;;;;5092722;28;20047;-72
2021/12/21 09:30:01;;;;;;;4.65;1.73;;;;;;;;;;5092680;28;20020;-72
2021/12/21 09:32:27;;;;;;;3.53;1.33;;;;;;;;;;5092890;28;20031;-70
2021/12/21 09:34:53;;;;;;;4.70;1.70;;;;;;;;;;5091302;28;20464;-69
2021/12/21 09:37:21;;;;;;;7.30;2.10;;;;;;;;;;5092667;28;20062;-72
2021/12/21 09:39:52;;;;;;;9.80;1.73;;;;;;;;;;5092282;28;20537;-70
2021/12/21 09:42:19;;;;;;;4.28;1.42;;;;;;;;;;5092201;28;20035;-69
2021/12/21 09:44:46;;;;;;;3.05;1.10;;;;;;;;;;5092276;28;20031;-70
2021/12/21 09:47:12;;;;;;;4.03;1.17;;;;;;;;;;5092256;28;20024;-70
2021/12/21 09:49:39;;;;;;;4.05;1.40;;;;;;;;;;5092118;28;20016;-68
2021/12/21 09:52:06;;;;;;;5.55;1.40;;;;;;;;;;5091962;28;20024;-68
2021/12/21 09:54:33;;;;;;;3.53;1.38;;;;;;;;;;5092039;28;20575;-71
2021/12/21 09:57:00;;;;;;;4.30;1.45;;;;;;;;;;5075857;28;20040;-71
2021/12/21 09:59:26;;;;;;;3.83;1.50;;;;;;;;;;5071763;28;20017;-68
2021/12/21 10:01:52;;;;;;;3.28;1.30;;;;;;;;;;5072008;28;20029;-68
2021/12/21 10:04:19;;;;;;;2.85;1.27;;;;;;;;;;5072365;28;20020;-68
2021/12/21 10:06:47;;;;;;;3.95;1.70;;;;;;;;;;5091864;28;20414;-72
2021/12/21 10:09:14;;;;;;;3.03;1.30;;;;;;;;;;5087257;28;20027;-71
2021/12/21 10:11:44;;;;;;;3.55;1.23;;;;;;;;;;5071331;28;20485;-69
2021/12/21 10:14:10;;;;;;;2.30;1.05;;;;;;;;;;5078939;28;20122;-69
2021/12/21 10:16:36;;;;;;;3.33;1.13;;;;;;;;;;5091819;28;20027;-71
2021/12/21 10:19:02;;;;;;;3.83;1.40;;;;;;;;;;5091738;28;20028;-70
2021/12/21 10:21:30;;;;;;;3.80;1.40;;;;;;;;;;5090224;28;20040;-67
2021/12/21 10:23:57;;;;;;;3.20;1.17;;;;;;;;;;5090184;28;20070;-70
2021/12/21 10:26:29;;;;;;;3.92;1.30;;;;;;;;;;5081959;28;20021;-69
2021/12/21 10:28:59;;;;;;;2.65;1.23;;;;;;;;;;5069785;28;20048;-71
2021/12/21 10:31:32;;;;;;;3.22;1.33;;;;;;;;;;5071253;28;20048;-71
2021/12/21 10:33:59;;;;;;;3.72;1.27;;;;;;;;;;5070917;28;20064;-71
2021/12/21 10:36:26;;;;;;;3.90;1.30;;;;;;;;;;5078810;28;20495;-71
2021/12/21 10:38:57;;;;;;;7.15;1.40;;;;;;;;;;5091388;28;20031;-71
2021/12/21 10:41:23;;;;;;;4.05;1.38;;;;;;;;;;5091467;28;20406;-72
2021/12/21 10:44:03;;;;;;;2.45;1.10;;;;;;;;;;5090692;28;20020;-69
2021/12/21 10:46:31;;;;;;;3.58;1.20;;;;;;;;;;5091328;28;20020;-71
2021/12/21 10:49:11;;;;;;;2.83;1.10;;;;;;;;;;5091442;28;20034;-68
2021/12/21 10:51:57;;;;;;;3.70;1.17;;;;;;;;;;5091179;28;20047;-68
2021/12/21 10:54:43;;;;;;;3.75;1.25;;;;;;;;;;5091293;28;20056;-68
2021/12/21 10:57:12;;;;;;;3.88;1.60;;;;;;;;;;5086636;28;20568;-67
2021/12/21 10:59:39;;;;;;;3.60;1.45;;;;;;;;;;5078329;28;20073;-69
2021/12/21 11:02:12;;;;;;;4.10;1.17;;;;;;;;;;5088529;28;20062;-68
2021/12/21 11:04:39;;;;;;;2.83;1.20;;;;;;;;;;5070759;28;20021;-67
2021/12/21 11:07:20;;;;;;;3.20;1.10;;;;;;;;;;5070723;28;20028;-71
2021/12/21 11:10:11;;;;;;;2.85;1.23;;;;;;;;;;5070829;28;20017;-67
2021/12/21 11:12:49;;;;;;;2.78;1.20;;;;;;;;;;5070967;28;20017;-68
2021/12/21 11:15:16;;;;;;;2.75;1.23;;;;;;;;;;5079891;28;20048;-68
2021/12/21 11:17:42;;;;;;;2.80;1.20;;;;;;;;;;5090748;28;20047;-71
2021/12/21 11:20:09;;;;;;;3.47;1.20;;;;;;;;;;5089641;28;20024;-71
2021/12/21 11:22:37;;;;;;;4.32;1.30;;;;;;;;;;5089644;28;20020;-71
2021/12/21 11:25:04;;;;;;;2.47;1.15;;;;;;;;;;5090961;28;20103;-71
2021/12/21 11:27:33;;;;;;;3.38;1.10;;;;;;;;;;5089705;28;20035;-72
2021/12/21 11:30:03;;;;;;;3.65;1.50;;;;;;;;;;5090684;28;20020;-70
2021/12/21 11:32:31;;;;;;;3.88;1.60;;;;;;;;;;5090613;28;20557;-71
2021/12/21 11:37:42;;;;;;;6.55;3.40;;;;;;;;;;5090761;28;20097;-72
2021/12/21 11:40:10;;;;;;;15.50;8.57;;;;;;;;;;5090740;28;20066;-69
2021/12/21 11:42:39;;;;;;;10.50;5.70;;;;;;;;;;5090756;28;20063;-69
2021/12/21 11:45:09;;;;;;;8.77;5.13;;;;;;;;;;5093156;28;20031;-71
2021/12/21 11:47:40;;;;;;;8.32;4.75;;;;;;;;;;5094624;28;20012;-68
2021/12/21 11:50:08;;;;;;;7.78;4.22;;;;;;;;;;5094795;28;20103;-68
2021/12/21 11:52:46;;;;;;;6.78;3.92;;;;;;;;;;5078496;28;20350;-71
2021/12/21 11:55:14;;;;;;;8.10;3.80;;;;;;;;;;5072535;28;20088;-68
2021/12/21 11:57:45;;;;;;;6.82;3.55;;;;;;;;;;5073484;28;20041;-65
2021/12/21 12:00:13;;;;;;;6.65;3.30;;;;;;;;;;5073680;28;20517;-70
2021/12/21 12:02:39;;;;;;;7.38;3.42;;;;;;;;;;5079470;28;20016;-68
2021/12/21 12:05:25;;;;;;;7.85;3.35;;;;;;;;;;5092907;28;20153;-68
2021/12/21 12:08:02;;;;;;;7.10;3.20;;;;;;;;;;5093249;28;20065;-70
2021/12/21 12:10:28;;;;;;;7.85;3.25;;;;;;;;;;5092835;28;20032;-73
2021/12/21 12:12:55;;;;;;;5.80;2.42;;;;;;;;;;5094006;28;20106;-71
2021/12/21 12:15:21;;;;;;;5.30;2.40;;;;;;;;;;5093733;28;20055;-70
2021/12/21 12:17:51;;;;;;;4.25;1.88;;;;;;;;;;5093706;28;20028;-71
2021/12/21 12:20:18;;;;;;;5.72;2.03;;;;;;;;;;5094067;28;20376;-70
2021/12/21 12:22:46;;;;;;;4.20;2.00;;;;;;;;;;5092628;28;20118;-71
2021/12/21 12:25:23;;;;;;;7.05;2.22;;;;;;;;;;5093585;28;20016;-69
2021/12/21 12:27:50;;;;;;;5.30;2.50;;;;;;;;;;5093464;28;20069;-71
2021/12/21 12:30:19;;;;;;;6.03;2.50;;;;;;;;;;5092505;28;20022;-70
2021/12/21 12:32:54;;;;;;;5.88;1.85;;;;;;;;;;5092629;28;20020;-71
2021/12/21 12:35:23;;;;;;;4.60;2.17;;;;;;;;;;5093712;28;20063;-72
2021/12/21 12:37:51;;;;;;;3.92;1.83;;;;;;;;;;5093520;28;20034;-70
2021/12/21 12:40:19;;;;;;;4.38;1.98;;;;;;;;;;5093585;28;20025;-71
2021/12/21 12:42:55;;;;;;;4.47;2.13;;;;;;;;;;5093436;28;20043;-68
2021/12/21 12:45:22;;;;;;;4.07;1.92;;;;;;;;;;5092137;28;20421;-71
2021/12/21 12:47:52;;;;;;;6.32;2.25;;;;;;;;;;5093424;28;20024;-70
2021/12/21 12:50:20;;;;;;;6.97;1.88;;;;;;;;;;5093325;28;20052;-70
2021/12/21 12:52:56;;;;;;;8.48;1.95;;;;;;;;;;5093153;28;20031;-70
2021/12/21 12:55:24;;;;;;;7.53;1.98;;;;;;;;;;5092553;28;20016;-70
2021/12/21 12:57:51;;;;;;;21.55;3.50;;;;;;;;;;5092790;28;20042;-71
2021/12/21 13:00:22;;;;;;;13.38;3.47;;;;;;;;;;5091792;28;20024;-71
2021/12/21 13:02:53;;;;;;;15.57;4.18;;;;;;;;;;5092926;28;20040;-71
2021/12/21 13:05:19;;;;;;;23.00;3.83;;;;;;;;;;5092842;28;20081;-70
2021/12/21 13:07:45;;;;;;;21.77;3.20;;;;;;;;;;5092767;28;20020;-68
2021/12/21 13:10:11;;;;;;;12.30;3.15;;;;;;;;;;5093012;28;20069;-71
2021/12/21 13:12:38;;;;;;;16.60;3.75;;;;;;;;;;5091547;28;20051;-70
2021/12/21 13:15:07;;;;;;;15.88;2.90;;;;;;;;;;5092522;28;20036;-71
2021/12/21 13:17:34;;;;;;;17.55;3.65;;;;;;;;;;5091302;28;20436;-70
2021/12/21 13:20:00;;;;;;;10.05;2.90;;;;;;;;;;5092584;28;20030;-70
2021/12/21 13:22:27;;;;;;;12.15;2.78;;;;;;;;;;5092793;28;20020;-70
2021/12/21 13:24:54;;;;;;;7.78;2.60;;;;;;;;;;5092531;28;20024;-71
2021/12/21 13:27:21;;;;;;;6.25;2.03;;;;;;;;;;5092775;28;20058;-74
2021/12/21 13:29:48;;;;;;;8.63;2.70;;;;;;;;;;5092820;28;20024;-71
2021/12/21 13:32:15;;;;;;;8.75;2.38;;;;;;;;;;5090907;28;20115;-67
2021/12/21 13:34:44;;;;;;;6.53;2.10;;;;;;;;;;5092069;28;20016;-66
2021/12/21 13:37:13;;;;;;;8.48;2.20;;;;;;;;;;5090667;28;20124;-66
2021/12/21 13:39:39;;;;;;;14.50;2.35;;;;;;;;;;5091664;28;20400;-69
2021/12/21 13:42:06;;;;;;;8.65;1.85;;;;;;;;;;5090171;28;20493;-70
2021/12/21 13:44:34;;;;;;;9.13;1.80;;;;;;;;;;5090769;28;20065;-70
2021/12/21 13:47:06;;;;;;;11.27;2.33;;;;;;;;;;5091525;28;20035;-66
2021/12/21 13:49:32;;;;;;;6.05;2.00;;;;;;;;;;5092141;28;20020;-66
2021/12/21 13:52:00;;;;;;;6.22;1.88;;;;;;;;;;5091641;28;20020;-71
2021/12/21 13:54:27;;;;;;;6.80;2.05;;;;;;;;;;5090711;28;20016;-66
2021/12/21 13:56:54;;;;;;;8.95;1.98;;;;;;;;;;5091980;28;20025;-66
2021/12/21 13:59:20;;;;;;;4.85;1.70;;;;;;;;;;5090879;28;20230;-69
2021/12/21 14:01:49;;;;;;;6.20;2.05;;;;;;;;;;5091747;28;20024;-65
2021/12/21 14:04:17;;;;;;;6.88;1.88;;;;;;;;;;5087475;28;20397;-65
2021/12/21 14:06:45;;;;;;;7.88;1.67;;;;;;;;;;5081174;28;20020;-69
2021/12/21 14:09:12;;;;;;;4.97;1.80;;;;;;;;;;5092926;28;20516;-66
2021/12/21 14:11:39;;;;;;;8.77;1.48;;;;;;;;;;5090495;28;20020;-68
2021/12/21 14:14:15;;;;;;;4.10;1.63;;;;;;;;;;5091784;28;20050;-69
2021/12/21 14:16:42;;;;;;;5.13;1.58;;;;;;;;;;5090368;28;20489;-66
2021/12/21 14:19:13;;;;;;;6.15;1.70;;;;;;;;;;5091670;28;20070;-67
2021/12/21 14:21:39;;;;;;;4.57;1.45;;;;;;;;;;5091748;28;20051;-68
2021/12/21 14:24:10;;;;;;;6.53;1.80;;;;;;;;;;5091664;28;20099;-68
2021/12/21 14:26:41;;;;;;;4.70;1.80;;;;;;;;;;5090357;28;20020;-65
2021/12/21 14:29:09;;;;;;;4.75;1.90;;;;;;;;;;5091721;28;20086;-66
2021/12/21 14:31:42;;;;;;;4.93;1.65;;;;;;;;;;5091353;28;20522;-66
2021/12/21 14:34:09;;;;;;;3.67;1.50;;;;;;;;;;5090270;28;20020;-68
2021/12/21 14:36:36;;;;;;;2.92;1.45;;;;;;;;;;5091473;28;20020;-67
2021/12/21 14:39:11;;;;;;;5.35;1.67;;;;;;;;;;5091402;28;20165;-66
2021/12/21 14:41:38;;;;;;;5.15;1.70;;;;;;;;;;5089891;28;20020;-69
2021/12/21 14:44:04;;;;;;;4.38;1.23;;;;;;;;;;5091242;28;20582;-67
2021/12/21 14:46:30;;;;;;;4.43;1.55;;;;;;;;;;5091299;28;20026;-67
2021/12/21 14:49:01;;;;;;;4.47;1.50;;;;;;;;;;5091313;28;20051;-68
2021/12/21 14:51:30;;;;;;;5.30;1.58;;;;;;;;;;5091093;28;20502;-68
2021/12/21 14:54:05;;;;;;;5.30;1.70;;;;;;;;;;5091335;28;20495;-67
2021/12/21 14:56:34;;;;;;;4.50;1.60;;;;;;;;;;5089872;28;20102;-68
2021/12/21 14:59:06;;;;;;;3.38;1.52;;;;;;;;;;5089885;28;20494;-67
2021/12/21 15:01:43;;;;;;;3.53;1.75;;;;;;;;;;5089769;28;20028;-70
2021/12/21 15:04:16;;;;;;;3.88;1.73;;;;;;;;;;5091023;28;20026;-69
2021/12/21 15:06:42;;;;;;;4.07;1.77;;;;;;;;;;5091124;28;20440;-71
2021/12/21 15:09:08;;;;;;;3.70;1.52;;;;;;;;;;5091101;28;20052;-69
2021/12/21 15:11:35;;;;;;;3.38;1.48;;;;;;;;;;5089724;28;20020;-72
2021/12/21 15:14:01;;;;;;;3.30;1.55;;;;;;;;;;5090974;28;20722;-70
2021/12/21 15:16:27;;;;;;;3.80;1.63;;;;;;;;;;5090935;28;20040;-66
2021/12/21 15:18:53;;;;;;;3.92;1.58;;;;;;;;;;5089771;28;20039;-65
2021/12/21 15:21:19;;;;;;;4.60;2.03;;;;;;;;;;5093699;28;20380;-66
2021/12/21 15:23:45;;;;;;;3.60;1.60;;;;;;;;;;5093402;28;20024;-66
2021/12/21 15:26:11;;;;;;;4.38;1.88;;;;;;;;;;5094695;28;20020;-68
2021/12/21 15:28:37;;;;;;;5.45;1.70;;;;;;;;;;5093436;28;20031;-67
2021/12/21 15:31:03;;;;;;;3.67;1.67;;;;;;;;;;5094750;28;20032;-66
2021/12/21 15:33:29;;;;;;;5.07;1.85;;;;;;;;;;5094796;28;20023;-67
2021/12/21 15:35:55;;;;;;;4.80;1.77;;;;;;;;;;5093202;28;20144;-68
2021/12/21 15:38:21;;;;;;;5.13;1.85;;;;;;;;;;5094340;28;20036;-68
2021/12/21 15:40:47;;;;;;;5.15;1.90;;;;;;;;;;5094934;28;20496;-66
2021/12/21 15:43:15;;;;;;;3.78;1.90;;;;;;;;;;5093527;28;20111;-67
2021/12/21 15:45:41;;;;;;;6.80;2.00;;;;;;;;;;5094649;28;20023;-69
2021/12/21 15:48:07;;;;;;;5.68;1.83;;;;;;;;;;5094604;28;20481;-69
2021/12/21 15:50:33;;;;;;;4.55;2.15;;;;;;;;;;5093070;28;20020;-69
2021/12/21 15:52:59;;;;;;;5.22;2.20;;;;;;;;;;5074628;28;20021;-66